sensor_id;sensor_type;location;lat;lon;timestamp;P1;durP1;ratioP1;P2;durP2;ratioP2
18046;SDS011;9148;51.454;13.862;2023-04-24T00:01:51;2.83;;;1.73;;
18046;SDS011;9148;51.454;13.862;2023-04-24T00:04:17;1.27;;;1.07;;
18046;SDS011;9148;51.454;13.862;2023-04-24T00:06:43;1.27;;;0.87;;
18046;SDS011;9148;51.454;13.862;2023-04-24T00:09:09;3.17;;;1.70;;
18046;SDS011;9148;51.454;13.862;2023-04-24T00:11:35;1.37;;;1.10;;
18046;SDS011;9148;51.454;13.862;2023-04-24T00:14:01;1.83;;;1.17;;
18046;SDS011;9148;51.454;13.862;2023-04-24T00:16:27;1.57;;;1.20;;
18046;SDS011;9148;51.454;13.862;2023-04-24T00:18:53;2.40;;;1.33;;
18046;SDS011;9148;51.454;13.862;2023-04-24T00:21:19;1.90;;;1.40;;
18046;SDS011;9148;51.454;13.862;2023-04-24T00:23:46;2.90;;;1.33;;
18046;SDS011;9148;51.454;13.862;2023-04-24T00:26:13;1.40;;;1.20;;
18046;SDS011;9148;51.454;13.862;2023-04-24T00:28:39;2.37;;;1.40;;
18046;SDS011;9148;51.454;13.862;2023-04-24T00:31:04;1.33;;;1.23;;
18046;SDS011;9148;51.454;13.862;2023-04-24T00:33:30;1.40;;;1.30;;
18046;SDS011;9148;51.454;13.862;2023-04-24T00:35:56;1.87;;;1.63;;
18046;SDS011;9148;51.454;13.862;2023-04-24T00:38:21;6.20;;;1.20;;
18046;SDS011;9148;51.454;13.862;2023-04-24T00:40:47;1.30;;;1.20;;
18046;SDS011;9148;51.454;13.862;2023-04-24T00:43:15;2.10;;;1.60;;
18046;SDS011;9148;51.454;13.862;2023-04-24T00:45:41;2.57;;;1.27;;
18046;SDS011;9148;51.454;13.862;2023-04-24T00:48:07;1.07;;;1.07;;
18046;SDS011;9148;51.454;13.862;2023-04-24T00:50:33;1.73;;;1.63;;
18046;SDS011;9148;51.454;13.862;2023-04-24T00:53:01;2.60;;;1.47;;
18046;SDS011;9148;51.454;13.862;2023-04-24T00:55:26;2.43;;;1.30;;
18046;SDS011;9148;51.454;13.862;2023-04-24T00:57:52;1.07;;;1.07;;
18046;SDS011;9148;51.454;13.862;2023-04-24T01:00:18;1.27;;;1.00;;
18046;SDS011;9148;51.454;13.862;2023-04-24T01:02:44;2.13;;;1.30;;
18046;SDS011;9148;51.454;13.862;2023-04-24T01:05:11;3.10;;;1.10;;
18046;SDS011;9148;51.454;13.862;2023-04-24T01:07:39;2.03;;;1.83;;
18046;SDS011;9148;51.454;13.862;2023-04-24T01:10:09;0.93;;;0.93;;
18046;SDS011;9148;51.454;13.862;2023-04-24T01:12:35;1.90;;;1.67;;
18046;SDS011;9148;51.454;13.862;2023-04-24T01:15:00;2.20;;;1.73;;
18046;SDS011;9148;51.454;13.862;2023-04-24T01:17:26;2.33;;;1.70;;
18046;SDS011;9148;51.454;13.862;2023-04-24T01:19:52;5.00;;;1.50;;
18046;SDS011;9148;51.454;13.862;2023-04-24T01:22:24;2.10;;;1.87;;
18046;SDS011;9148;51.454;13.862;2023-04-24T01:24:51;3.97;;;1.80;;
18046;SDS011;9148;51.454;13.862;2023-04-24T01:27:17;1.90;;;1.67;;
18046;SDS011;9148;51.454;13.862;2023-04-24T01:29:44;1.20;;;1.10;;
18046;SDS011;9148;51.454;13.862;2023-04-24T01:32:10;2.20;;;1.47;;
18046;SDS011;9148;51.454;13.862;2023-04-24T01:34:37;1.63;;;1.17;;
18046;SDS011;9148;51.454;13.862;2023-04-24T01:37:04;1.63;;;1.40;;
18046;SDS011;9148;51.454;13.862;2023-04-24T01:39:30;2.77;;;1.90;;
18046;SDS011;9148;51.454;13.862;2023-04-24T01:41:56;2.03;;;1.50;;
18046;SDS011;9148;51.454;13.862;2023-04-24T01:44:22;1.67;;;1.30;;
18046;SDS011;9148;51.454;13.862;2023-04-24T01:46:48;3.03;;;1.73;;
18046;SDS011;9148;51.454;13.862;2023-04-24T01:49:13;3.50;;;1.70;;
18046;SDS011;9148;51.454;13.862;2023-04-24T01:51:40;2.77;;;1.80;;
18046;SDS011;9148;51.454;13.862;2023-04-24T01:54:06;1.60;;;1.43;;
18046;SDS011;9148;51.454;13.862;2023-04-24T01:56:33;3.90;;;1.67;;
18046;SDS011;9148;51.454;13.862;2023-04-24T01:59:02;1.93;;;1.50;;
18046;SDS011;9148;51.454;13.862;2023-04-24T02:01:32;3.43;;;1.87;;
18046;SDS011;9148;51.454;13.862;2023-04-24T02:04:03;1.73;;;1.63;;
18046;SDS011;9148;51.454;13.862;2023-04-24T02:06:30;3.13;;;1.50;;
18046;SDS011;9148;51.454;13.862;2023-04-24T02:08:56;2.20;;;2.10;;
18046;SDS011;9148;51.454;13.862;2023-04-24T02:11:23;2.10;;;1.73;;
18046;SDS011;9148;51.454;13.862;2023-04-24T02:13:49;3.27;;;1.10;;
18046;SDS011;9148;51.454;13.862;2023-04-24T02:16:16;2.00;;;1.60;;
18046;SDS011;9148;51.454;13.862;2023-04-24T02:18:42;4.17;;;1.13;;
18046;SDS011;9148;51.454;13.862;2023-04-24T02:21:08;2.83;;;1.53;;
18046;SDS011;9148;51.454;13.862;2023-04-24T02:23:34;1.93;;;1.57;;
18046;SDS011;9148;51.454;13.862;2023-04-24T02:25:59;1.30;;;1.20;;
18046;SDS011;9148;51.454;13.862;2023-04-24T02:28:25;1.93;;;1.40;;
18046;SDS011;9148;51.454;13.862;2023-04-24T02:30:51;2.13;;;1.63;;
18046;SDS011;9148;51.454;13.862;2023-04-24T02:33:16;3.70;;;2.10;;
18046;SDS011;9148;51.454;13.862;2023-04-24T02:35:42;1.83;;;1.57;;
18046;SDS011;9148;51.454;13.862;2023-04-24T02:38:08;1.93;;;1.60;;
18046;SDS011;9148;51.454;13.862;2023-04-24T02:40:33;1.77;;;1.43;;
18046;SDS011;9148;51.454;13.862;2023-04-24T02:42:59;2.33;;;1.50;;
18046;SDS011;9148;51.454;13.862;2023-04-24T02:45:25;3.37;;;1.53;;
18046;SDS011;9148;51.454;13.862;2023-04-24T02:47:50;1.43;;;1.27;;
18046;SDS011;9148;51.454;13.862;2023-04-24T02:50:16;2.27;;;1.57;;
18046;SDS011;9148;51.454;13.862;2023-04-24T02:52:42;1.70;;;1.60;;
18046;SDS011;9148;51.454;13.862;2023-04-24T02:55:07;2.30;;;1.63;;
18046;SDS011;9148;51.454;13.862;2023-04-24T02:57:33;3.67;;;1.63;;
18046;SDS011;9148;51.454;13.862;2023-04-24T02:59:59;2.47;;;1.57;;
18046;SDS011;9148;51.454;13.862;2023-04-24T03:02:25;1.03;;;1.03;;
18046;SDS011;9148;51.454;13.862;2023-04-24T03:04:50;2.03;;;1.70;;
18046;SDS011;9148;51.454;13.862;2023-04-24T03:07:16;1.53;;;1.43;;
18046;SDS011;9148;51.454;13.862;2023-04-24T03:09:45;2.60;;;1.90;;
18046;SDS011;9148;51.454;13.862;2023-04-24T03:12:12;1.47;;;1.23;;
18046;SDS011;9148;51.454;13.862;2023-04-24T03:14:38;1.97;;;1.63;;
18046;SDS011;9148;51.454;13.862;2023-04-24T03:17:03;2.27;;;1.40;;
18046;SDS011;9148;51.454;13.862;2023-04-24T03:19:29;1.67;;;1.53;;
18046;SDS011;9148;51.454;13.862;2023-04-24T03:21:55;3.97;;;1.60;;
18046;SDS011;9148;51.454;13.862;2023-04-24T03:24:20;1.70;;;1.60;;
18046;SDS011;9148;51.454;13.862;2023-04-24T03:26:46;1.40;;;1.30;;
18046;SDS011;9148;51.454;13.862;2023-04-24T03:29:12;2.30;;;1.60;;
18046;SDS011;9148;51.454;13.862;2023-04-24T03:31:37;1.97;;;1.37;;
18046;SDS011;9148;51.454;13.862;2023-04-24T03:34:03;2.73;;;1.33;;
18046;SDS011;9148;51.454;13.862;2023-04-24T03:36:29;2.77;;;1.97;;
18046;SDS011;9148;51.454;13.862;2023-04-24T03:38:55;3.63;;;1.77;;
18046;SDS011;9148;51.454;13.862;2023-04-24T03:41:21;1.40;;;1.27;;
18046;SDS011;9148;51.454;13.862;2023-04-24T03:43:47;2.13;;;1.63;;
18046;SDS011;9148;51.454;13.862;2023-04-24T03:46:13;5.10;;;2.07;;
18046;SDS011;9148;51.454;13.862;2023-04-24T03:48:38;2.33;;;1.60;;
18046;SDS011;9148;51.454;13.862;2023-04-24T03:51:04;3.40;;;1.67;;
18046;SDS011;9148;51.454;13.862;2023-04-24T03:53:30;2.80;;;1.40;;
18046;SDS011;9148;51.454;13.862;2023-04-24T03:55:55;1.23;;;1.10;;
18046;SDS011;9148;51.454;13.862;2023-04-24T03:58:21;1.57;;;1.47;;
18046;SDS011;9148;51.454;13.862;2023-04-24T04:00:47;1.07;;;0.97;;
18046;SDS011;9148;51.454;13.862;2023-04-24T04:03:13;1.37;;;1.27;;
18046;SDS011;9148;51.454;13.862;2023-04-24T04:05:39;2.23;;;1.40;;
18046;SDS011;9148;51.454;13.862;2023-04-24T04:08:05;1.77;;;1.20;;
18046;SDS011;9148;51.454;13.862;2023-04-24T04:10:31;1.73;;;1.27;;
18046;SDS011;9148;51.454;13.862;2023-04-24T04:12:56;1.27;;;1.13;;
18046;SDS011;9148;51.454;13.862;2023-04-24T04:15:22;0.93;;;0.77;;
18046;SDS011;9148;51.454;13.862;2023-04-24T04:17:48;1.07;;;1.07;;
18046;SDS011;9148;51.454;13.862;2023-04-24T04:20:13;1.17;;;1.07;;
18046;SDS011;9148;51.454;13.862;2023-04-24T04:22:39;1.37;;;0.87;;
18046;SDS011;9148;51.454;13.862;2023-04-24T04:25:05;0.93;;;0.80;;
18046;SDS011;9148;51.454;13.862;2023-04-24T04:27:31;2.17;;;0.90;;
18046;SDS011;9148;51.454;13.862;2023-04-24T04:29:58;1.90;;;0.60;;
18046;SDS011;9148;51.454;13.862;2023-04-24T04:32:29;1.53;;;0.80;;
18046;SDS011;9148;51.454;13.862;2023-04-24T04:34:59;0.80;;;0.50;;
18046;SDS011;9148;51.454;13.862;2023-04-24T04:37:29;0.87;;;0.87;;
18046;SDS011;9148;51.454;13.862;2023-04-24T04:39:58;2.27;;;0.87;;
18046;SDS011;9148;51.454;13.862;2023-04-24T04:42:28;0.80;;;0.70;;
18046;SDS011;9148;51.454;13.862;2023-04-24T04:44:53;0.90;;;0.57;;
18046;SDS011;9148;51.454;13.862;2023-04-24T04:47:22;0.50;;;0.37;;
18046;SDS011;9148;51.454;13.862;2023-04-24T04:49:56;0.60;;;0.60;;
18046;SDS011;9148;51.454;13.862;2023-04-24T04:52:22;1.10;;;0.50;;
18046;SDS011;9148;51.454;13.862;2023-04-24T04:54:51;0.70;;;0.40;;
18046;SDS011;9148;51.454;13.862;2023-04-24T04:57:17;2.13;;;0.67;;
18046;SDS011;9148;51.454;13.862;2023-04-24T04:59:42;0.70;;;0.70;;
18046;SDS011;9148;51.454;13.862;2023-04-24T05:02:08;0.60;;;0.30;;
18046;SDS011;9148;51.454;13.862;2023-04-24T05:04:34;0.40;;;0.40;;
18046;SDS011;9148;51.454;13.862;2023-04-24T05:07:00;0.60;;;0.50;;
18046;SDS011;9148;51.454;13.862;2023-04-24T05:09:25;2.10;;;1.17;;
18046;SDS011;9148;51.454;13.862;2023-04-24T05:11:56;1.53;;;1.30;;
18046;SDS011;9148;51.454;13.862;2023-04-24T05:14:22;1.40;;;1.30;;
18046;SDS011;9148;51.454;13.862;2023-04-24T05:16:47;1.37;;;0.80;;
18046;SDS011;9148;51.454;13.862;2023-04-24T05:19:13;1.10;;;1.00;;
18046;SDS011;9148;51.454;13.862;2023-04-24T05:21:39;1.43;;;0.70;;
18046;SDS011;9148;51.454;13.862;2023-04-24T05:24:06;1.33;;;0.97;;
18046;SDS011;9148;51.454;13.862;2023-04-24T05:26:31;2.17;;;1.23;;
18046;SDS011;9148;51.454;13.862;2023-04-24T05:28:57;1.77;;;1.33;;
18046;SDS011;9148;51.454;13.862;2023-04-24T05:31:23;1.07;;;0.80;;
18046;SDS011;9148;51.454;13.862;2023-04-24T05:33:50;1.57;;;1.07;;
18046;SDS011;9148;51.454;13.862;2023-04-24T05:36:16;0.40;;;0.40;;
18046;SDS011;9148;51.454;13.862;2023-04-24T05:38:41;0.67;;;0.30;;
18046;SDS011;9148;51.454;13.862;2023-04-24T05:41:07;2.20;;;0.53;;
18046;SDS011;9148;51.454;13.862;2023-04-24T05:43:33;0.57;;;0.57;;
18046;SDS011;9148;51.454;13.862;2023-04-24T05:45:58;0.77;;;0.40;;
18046;SDS011;9148;51.454;13.862;2023-04-24T05:48:24;0.30;;;0.30;;
18046;SDS011;9148;51.454;13.862;2023-04-24T05:50:50;0.60;;;0.50;;
18046;SDS011;9148;51.454;13.862;2023-04-24T05:53:17;1.60;;;0.30;;
18046;SDS011;9148;51.454;13.862;2023-04-24T05:55:43;1.80;;;0.70;;
18046;SDS011;9148;51.454;13.862;2023-04-24T05:58:09;0.83;;;0.50;;
18046;SDS011;9148;51.454;13.862;2023-04-24T06:00:36;0.80;;;0.50;;
18046;SDS011;9148;51.454;13.862;2023-04-24T06:03:01;3.60;;;0.50;;
18046;SDS011;9148;51.454;13.862;2023-04-24T06:05:28;0.50;;;0.50;;
18046;SDS011;9148;51.454;13.862;2023-04-24T06:07:55;0.57;;;0.30;;
18046;SDS011;9148;51.454;13.862;2023-04-24T06:10:20;0.30;;;0.30;;
18046;SDS011;9148;51.454;13.862;2023-04-24T06:12:46;0.55;;;0.55;;
18046;SDS011;9148;51.454;13.862;2023-04-24T06:15:12;0.30;;;0.30;;
18046;SDS011;9148;51.454;13.862;2023-04-24T06:17:37;0.33;;;0.33;;
18046;SDS011;9148;51.454;13.862;2023-04-24T06:20:03;0.30;;;0.30;;
18046;SDS011;9148;51.454;13.862;2023-04-24T06:22:31;0.65;;;0.65;;
18046;SDS011;9148;51.454;13.862;2023-04-24T06:24:57;0.60;;;0.60;;
18046;SDS011;9148;51.454;13.862;2023-04-24T06:27:22;0.60;;;0.45;;
18046;SDS011;9148;51.454;13.862;2023-04-24T06:29:48;0.40;;;0.40;;
18046;SDS011;9148;51.454;13.862;2023-04-24T06:32:20;0.28;;;0.28;;
18046;SDS011;9148;51.454;13.862;2023-04-24T06:34:50;0.50;;;0.38;;
18046;SDS011;9148;51.454;13.862;2023-04-24T06:37:18;0.30;;;0.30;;
18046;SDS011;9148;51.454;13.862;2023-04-24T06:39:47;0.50;;;0.30;;
18046;SDS011;9148;51.454;13.862;2023-04-24T06:42:12;0.90;;;0.65;;
18046;SDS011;9148;51.454;13.862;2023-04-24T06:44:38;0.65;;;0.60;;
18046;SDS011;9148;51.454;13.862;2023-04-24T06:47:08;0.20;;;0.20;;
18046;SDS011;9148;51.454;13.862;2023-04-24T06:49:35;0.50;;;0.50;;
18046;SDS011;9148;51.454;13.862;2023-04-24T06:52:02;0.50;;;0.50;;
18046;SDS011;9148;51.454;13.862;2023-04-24T06:54:28;4.22;;;0.57;;
18046;SDS011;9148;51.454;13.862;2023-04-24T06:56:55;0.38;;;0.38;;
18046;SDS011;9148;51.454;13.862;2023-04-24T06:59:22;0.40;;;0.40;;
18046;SDS011;9148;51.454;13.862;2023-04-24T07:01:51;0.68;;;0.45;;
18046;SDS011;9148;51.454;13.862;2023-04-24T07:04:17;0.70;;;0.38;;
18046;SDS011;9148;51.454;13.862;2023-04-24T07:06:43;0.45;;;0.45;;
18046;SDS011;9148;51.454;13.862;2023-04-24T07:09:11;0.55;;;0.52;;
18046;SDS011;9148;51.454;13.862;2023-04-24T07:11:38;0.55;;;0.55;;
18046;SDS011;9148;51.454;13.862;2023-04-24T07:14:05;1.60;;;0.77;;
18046;SDS011;9148;51.454;13.862;2023-04-24T07:16:32;0.95;;;0.50;;
18046;SDS011;9148;51.454;13.862;2023-04-24T07:18:57;0.47;;;0.47;;
18046;SDS011;9148;51.454;13.862;2023-04-24T07:21:23;1.88;;;0.55;;
18046;SDS011;9148;51.454;13.862;2023-04-24T07:23:49;0.65;;;0.47;;
18046;SDS011;9148;51.454;13.862;2023-04-24T07:26:15;0.40;;;0.40;;
18046;SDS011;9148;51.454;13.862;2023-04-24T07:28:41;0.43;;;0.40;;
18046;SDS011;9148;51.454;13.862;2023-04-24T07:31:08;0.90;;;0.40;;
18046;SDS011;9148;51.454;13.862;2023-04-24T07:33:36;0.60;;;0.60;;
18046;SDS011;9148;51.454;13.862;2023-04-24T07:36:01;1.67;;;0.50;;
18046;SDS011;9148;51.454;13.862;2023-04-24T07:38:29;0.65;;;0.52;;
18046;SDS011;9148;51.454;13.862;2023-04-24T07:40:56;0.50;;;0.50;;
18046;SDS011;9148;51.454;13.862;2023-04-24T07:43:21;0.75;;;0.30;;
18046;SDS011;9148;51.454;13.862;2023-04-24T07:45:48;0.38;;;0.30;;
18046;SDS011;9148;51.454;13.862;2023-04-24T07:48:15;1.88;;;0.52;;
18046;SDS011;9148;51.454;13.862;2023-04-24T07:50:42;0.70;;;0.50;;
18046;SDS011;9148;51.454;13.862;2023-04-24T07:53:11;0.75;;;0.40;;
18046;SDS011;9148;51.454;13.862;2023-04-24T07:55:37;0.90;;;0.38;;
18046;SDS011;9148;51.454;13.862;2023-04-24T07:58:02;0.35;;;0.35;;
18046;SDS011;9148;51.454;13.862;2023-04-24T08:00:28;2.75;;;0.45;;
18046;SDS011;9148;51.454;13.862;2023-04-24T08:02:54;0.30;;;0.30;;
18046;SDS011;9148;51.454;13.862;2023-04-24T08:05:20;0.60;;;0.55;;
18046;SDS011;9148;51.454;13.862;2023-04-24T08:07:46;0.60;;;0.32;;
18046;SDS011;9148;51.454;13.862;2023-04-24T08:10:13;0.30;;;0.30;;
18046;SDS011;9148;51.454;13.862;2023-04-24T08:12:39;0.10;;;0.10;;
18046;SDS011;9148;51.454;13.862;2023-04-24T08:15:06;0.52;;;0.45;;
18046;SDS011;9148;51.454;13.862;2023-04-24T08:17:33;1.48;;;0.20;;
18046;SDS011;9148;51.454;13.862;2023-04-24T08:20:00;0.70;;;0.50;;
18046;SDS011;9148;51.454;13.862;2023-04-24T08:22:27;0.70;;;0.25;;
18046;SDS011;9148;51.454;13.862;2023-04-24T08:24:53;0.22;;;0.22;;
18046;SDS011;9148;51.454;13.862;2023-04-24T08:27:20;0.95;;;0.45;;
18046;SDS011;9148;51.454;13.862;2023-04-24T08:29:46;0.30;;;0.30;;
18046;SDS011;9148;51.454;13.862;2023-04-24T08:32:12;0.50;;;0.50;;
18046;SDS011;9148;51.454;13.862;2023-04-24T08:34:37;1.38;;;0.30;;
18046;SDS011;9148;51.454;13.862;2023-04-24T08:37:03;0.65;;;0.40;;
18046;SDS011;9148;51.454;13.862;2023-04-24T08:39:32;1.40;;;0.25;;
18046;SDS011;9148;51.454;13.862;2023-04-24T08:41:58;0.28;;;0.28;;
18046;SDS011;9148;51.454;13.862;2023-04-24T08:44:30;0.75;;;0.32;;
18046;SDS011;9148;51.454;13.862;2023-04-24T08:46:57;0.20;;;0.20;;
18046;SDS011;9148;51.454;13.862;2023-04-24T08:49:24;0.57;;;0.47;;
18046;SDS011;9148;51.454;13.862;2023-04-24T08:51:52;0.22;;;0.22;;
18046;SDS011;9148;51.454;13.862;2023-04-24T08:54:18;0.73;;;0.52;;
18046;SDS011;9148;51.454;13.862;2023-04-24T08:56:44;0.32;;;0.17;;
18046;SDS011;9148;51.454;13.862;2023-04-24T08:59:13;0.20;;;0.20;;
18046;SDS011;9148;51.454;13.862;2023-04-24T09:01:40;2.05;;;0.30;;
18046;SDS011;9148;51.454;13.862;2023-04-24T09:04:07;0.50;;;0.50;;
18046;SDS011;9148;51.454;13.862;2023-04-24T09:06:38;0.40;;;0.25;;
18046;SDS011;9148;51.454;13.862;2023-04-24T09:09:04;0.38;;;0.38;;
18046;SDS011;9148;51.454;13.862;2023-04-24T09:11:30;1.70;;;0.45;;
18046;SDS011;9148;51.454;13.862;2023-04-24T09:14:00;1.15;;;0.50;;
18046;SDS011;9148;51.454;13.862;2023-04-24T09:16:26;0.52;;;0.43;;
18046;SDS011;9148;51.454;13.862;2023-04-24T09:18:52;0.93;;;0.40;;
18046;SDS011;9148;51.454;13.862;2023-04-24T09:21:20;0.30;;;0.30;;
18046;SDS011;9148;51.454;13.862;2023-04-24T09:23:47;0.10;;;0.10;;
18046;SDS011;9148;51.454;13.862;2023-04-24T09:26:24;0.57;;;0.35;;
18046;SDS011;9148;51.454;13.862;2023-04-24T09:28:50;0.40;;;0.40;;
18046;SDS011;9148;51.454;13.862;2023-04-24T09:31:17;0.88;;;0.40;;
18046;SDS011;9148;51.454;13.862;2023-04-24T09:33:53;2.53;;;0.82;;
18046;SDS011;9148;51.454;13.862;2023-04-24T09:36:28;0.50;;;0.50;;
18046;SDS011;9148;51.454;13.862;2023-04-24T09:39:01;0.35;;;0.20;;
18046;SDS011;9148;51.454;13.862;2023-04-24T09:41:43;0.22;;;0.20;;
18046;SDS011;9148;51.454;13.862;2023-04-24T09:44:25;0.20;;;0.15;;
18046;SDS011;9148;51.454;13.862;2023-04-24T09:46:53;0.47;;;0.30;;
18046;SDS011;9148;51.454;13.862;2023-04-24T09:49:28;0.63;;;0.63;;
18046;SDS011;9148;51.454;13.862;2023-04-24T09:52:08;1.58;;;0.40;;
18046;SDS011;9148;51.454;13.862;2023-04-24T09:54:36;0.60;;;0.50;;
18046;SDS011;9148;51.454;13.862;2023-04-24T09:57:03;0.40;;;0.40;;
18046;SDS011;9148;51.454;13.862;2023-04-24T09:59:30;0.50;;;0.40;;
18046;SDS011;9148;51.454;13.862;2023-04-24T10:01:56;0.38;;;0.38;;
18046;SDS011;9148;51.454;13.862;2023-04-24T10:04:24;0.30;;;0.30;;
18046;SDS011;9148;51.454;13.862;2023-04-24T10:06:54;0.45;;;0.45;;
18046;SDS011;9148;51.454;13.862;2023-04-24T10:09:22;0.10;;;0.10;;
18046;SDS011;9148;51.454;13.862;2023-04-24T10:11:50;0.98;;;0.40;;
18046;SDS011;9148;51.454;13.862;2023-04-24T10:14:21;2.38;;;0.57;;
18046;SDS011;9148;51.454;13.862;2023-04-24T10:16:49;1.08;;;0.45;;
18046;SDS011;9148;51.454;13.862;2023-04-24T10:19:18;0.20;;;0.20;;
18046;SDS011;9148;51.454;13.862;2023-04-24T10:21:44;0.50;;;0.20;;
18046;SDS011;9148;51.454;13.862;2023-04-24T10:24:14;0.40;;;0.30;;
18046;SDS011;9148;51.454;13.862;2023-04-24T10:26:41;0.20;;;0.20;;
18046;SDS011;9148;51.454;13.862;2023-04-24T10:29:08;0.45;;;0.45;;
18046;SDS011;9148;51.454;13.862;2023-04-24T10:31:37;0.43;;;0.20;;
18046;SDS011;9148;51.454;13.862;2023-04-24T10:34:05;0.55;;;0.55;;
18046;SDS011;9148;51.454;13.862;2023-04-24T10:36:32;0.73;;;0.40;;
18046;SDS011;9148;51.454;13.862;2023-04-24T10:39:03;0.43;;;0.40;;
18046;SDS011;9148;51.454;13.862;2023-04-24T10:41:33;0.40;;;0.30;;
18046;SDS011;9148;51.454;13.862;2023-04-24T10:44:09;0.32;;;0.30;;
18046;SDS011;9148;51.454;13.862;2023-04-24T10:46:38;0.20;;;0.20;;
18046;SDS011;9148;51.454;13.862;2023-04-24T10:49:08;0.20;;;0.20;;
18046;SDS011;9148;51.454;13.862;2023-04-24T10:54:25;0.70;;;0.43;;
18046;SDS011;9148;51.454;13.862;2023-04-24T10:59:46;0.25;;;0.25;;
18046;SDS011;9148;51.454;13.862;2023-04-24T11:02:16;0.38;;;0.28;;
18046;SDS011;9148;51.454;13.862;2023-04-24T11:04:42;3.13;;;1.10;;
18046;SDS011;9148;51.454;13.862;2023-04-24T11:07:10;0.30;;;0.30;;
18046;SDS011;9148;51.454;13.862;2023-04-24T11:09:36;1.70;;;0.22;;
18046;SDS011;9148;51.454;13.862;2023-04-24T11:12:08;2.80;;;0.28;;
18046;SDS011;9148;51.454;13.862;2023-04-24T11:17:54;0.45;;;0.25;;
18046;SDS011;9148;51.454;13.862;2023-04-24T11:20:17;0.17;;;0.17;;
18046;SDS011;9148;51.454;13.862;2023-04-24T11:22:43;1.23;;;0.47;;
18046;SDS011;9148;51.454;13.862;2023-04-24T11:25:09;1.45;;;0.35;;
18046;SDS011;9148;51.454;13.862;2023-04-24T11:27:40;0.17;;;0.17;;
18046;SDS011;9148;51.454;13.862;2023-04-24T11:30:16;0.80;;;0.38;;
18046;SDS011;9148;51.454;13.862;2023-04-24T11:32:46;0.68;;;0.32;;
18046;SDS011;9148;51.454;13.862;2023-04-24T11:35:16;0.20;;;0.20;;
18046;SDS011;9148;51.454;13.862;2023-04-24T11:37:47;0.20;;;0.20;;
18046;SDS011;9148;51.454;13.862;2023-04-24T11:40:15;0.52;;;0.32;;
18046;SDS011;9148;51.454;13.862;2023-04-24T11:42:46;0.10;;;0.10;;
18046;SDS011;9148;51.454;13.862;2023-04-24T11:45:14;0.30;;;0.30;;
18046;SDS011;9148;51.454;13.862;2023-04-24T11:47:47;0.40;;;0.28;;
18046;SDS011;9148;51.454;13.862;2023-04-24T11:50:13;0.30;;;0.30;;
18046;SDS011;9148;51.454;13.862;2023-04-24T11:52:42;0.47;;;0.25;;
18046;SDS011;9148;51.454;13.862;2023-04-24T11:57:39;0.50;;;0.50;;
18046;SDS011;9148;51.454;13.862;2023-04-24T12:00:14;0.52;;;0.40;;
18046;SDS011;9148;51.454;13.862;2023-04-24T12:02:49;0.30;;;0.30;;
18046;SDS011;9148;51.454;13.862;2023-04-24T12:05:26;0.68;;;0.68;;
18046;SDS011;9148;51.454;13.862;2023-04-24T12:07:52;0.38;;;0.32;;
18046;SDS011;9148;51.454;13.862;2023-04-24T12:10:26;1.30;;;0.68;;
18046;SDS011;9148;51.454;13.862;2023-04-24T12:12:54;0.30;;;0.30;;
18046;SDS011;9148;51.454;13.862;2023-04-24T12:15:22;0.28;;;0.28;;
18046;SDS011;9148;51.454;13.862;2023-04-24T12:17:50;0.30;;;0.30;;
18046;SDS011;9148;51.454;13.862;2023-04-24T12:20:17;0.20;;;0.20;;
18046;SDS011;9148;51.454;13.862;2023-04-24T12:22:53;0.35;;;0.30;;
18046;SDS011;9148;51.454;13.862;2023-04-24T12:25:24;0.20;;;0.20;;
18046;SDS011;9148;51.454;13.862;2023-04-24T12:27:52;0.13;;;0.13;;
18046;SDS011;9148;51.454;13.862;2023-04-24T12:30:44;0.28;;;0.28;;
18046;SDS011;9148;51.454;13.862;2023-04-24T12:33:17;0.80;;;0.60;;
18046;SDS011;9148;51.454;13.862;2023-04-24T12:35:44;0.30;;;0.30;;
18046;SDS011;9148;51.454;13.862;2023-04-24T12:38:13;0.20;;;0.20;;
18046;SDS011;9148;51.454;13.862;2023-04-24T12:40:41;0.30;;;0.30;;
18046;SDS011;9148;51.454;13.862;2023-04-24T12:43:18;0.68;;;0.55;;
18046;SDS011;9148;51.454;13.862;2023-04-24T12:45:44;0.30;;;0.25;;
18046;SDS011;9148;51.454;13.862;2023-04-24T12:48:12;0.30;;;0.30;;
18046;SDS011;9148;51.454;13.862;2023-04-24T12:50:41;0.52;;;0.52;;
18046;SDS011;9148;51.454;13.862;2023-04-24T12:53:08;0.45;;;0.32;;
18046;SDS011;9148;51.454;13.862;2023-04-24T12:55:34;0.38;;;0.28;;
18046;SDS011;9148;51.454;13.862;2023-04-24T12:58:00;0.60;;;0.60;;
18046;SDS011;9148;51.454;13.862;2023-04-24T13:00:27;0.82;;;0.52;;
18046;SDS011;9148;51.454;13.862;2023-04-24T13:02:54;2.70;;;0.50;;
18046;SDS011;9148;51.454;13.862;2023-04-24T13:05:20;0.93;;;0.73;;
18046;SDS011;9148;51.454;13.862;2023-04-24T13:07:46;0.38;;;0.30;;
18046;SDS011;9148;51.454;13.862;2023-04-24T13:10:11;0.77;;;0.40;;
18046;SDS011;9148;51.454;13.862;2023-04-24T13:12:38;0.82;;;0.40;;
18046;SDS011;9148;51.454;13.862;2023-04-24T13:15:04;0.85;;;0.75;;
18046;SDS011;9148;51.454;13.862;2023-04-24T13:17:31;0.95;;;0.63;;
18046;SDS011;9148;51.454;13.862;2023-04-24T13:19:56;0.30;;;0.30;;
18046;SDS011;9148;51.454;13.862;2023-04-24T13:22:22;1.63;;;0.60;;
18046;SDS011;9148;51.454;13.862;2023-04-24T13:24:48;0.20;;;0.20;;
18046;SDS011;9148;51.454;13.862;2023-04-24T13:27:14;0.13;;;0.13;;
18046;SDS011;9148;51.454;13.862;2023-04-24T13:29:40;0.95;;;0.45;;
18046;SDS011;9148;51.454;13.862;2023-04-24T13:32:06;0.30;;;0.30;;
18046;SDS011;9148;51.454;13.862;2023-04-24T13:34:33;0.55;;;0.43;;
18046;SDS011;9148;51.454;13.862;2023-04-24T13:37:00;0.88;;;0.70;;
18046;SDS011;9148;51.454;13.862;2023-04-24T13:39:26;2.17;;;1.10;;
18046;SDS011;9148;51.454;13.862;2023-04-24T13:41:52;1.02;;;0.45;;
18046;SDS011;9148;51.454;13.862;2023-04-24T13:44:18;2.45;;;0.30;;
18046;SDS011;9148;51.454;13.862;2023-04-24T13:46:45;0.55;;;0.45;;
18046;SDS011;9148;51.454;13.862;2023-04-24T13:49:13;0.32;;;0.32;;
18046;SDS011;9148;51.454;13.862;2023-04-24T13:51:40;0.20;;;0.20;;
18046;SDS011;9148;51.454;13.862;2023-04-24T13:54:07;0.20;;;0.20;;
18046;SDS011;9148;51.454;13.862;2023-04-24T13:56:32;1.08;;;0.30;;
18046;SDS011;9148;51.454;13.862;2023-04-24T13:59:04;0.20;;;0.20;;
18046;SDS011;9148;51.454;13.862;2023-04-24T14:01:30;0.22;;;0.22;;
18046;SDS011;9148;51.454;13.862;2023-04-24T14:03:56;0.25;;;0.25;;
18046;SDS011;9148;51.454;13.862;2023-04-24T14:06:22;0.50;;;0.32;;
18046;SDS011;9148;51.454;13.862;2023-04-24T14:08:48;1.75;;;0.50;;
18046;SDS011;9148;51.454;13.862;2023-04-24T14:11:15;0.38;;;0.32;;
18046;SDS011;9148;51.454;13.862;2023-04-24T14:13:41;0.63;;;0.40;;
18046;SDS011;9148;51.454;13.862;2023-04-24T14:16:07;0.30;;;0.20;;
18046;SDS011;9148;51.454;13.862;2023-04-24T14:18:33;0.82;;;0.50;;
18046;SDS011;9148;51.454;13.862;2023-04-24T14:20:59;0.38;;;0.38;;
18046;SDS011;9148;51.454;13.862;2023-04-24T14:23:26;0.93;;;0.40;;
18046;SDS011;9148;51.454;13.862;2023-04-24T14:25:52;0.57;;;0.30;;
18046;SDS011;9148;51.454;13.862;2023-04-24T14:28:18;0.30;;;0.30;;
18046;SDS011;9148;51.454;13.862;2023-04-24T14:30:45;0.35;;;0.30;;
18046;SDS011;9148;51.454;13.862;2023-04-24T14:33:11;0.28;;;0.20;;
18046;SDS011;9148;51.454;13.862;2023-04-24T14:35:37;0.38;;;0.30;;
18046;SDS011;9148;51.454;13.862;2023-04-24T14:38:04;0.50;;;0.30;;
18046;SDS011;9148;51.454;13.862;2023-04-24T14:40:30;0.60;;;0.38;;
18046;SDS011;9148;51.454;13.862;2023-04-24T14:42:57;0.60;;;0.40;;
18046;SDS011;9148;51.454;13.862;2023-04-24T14:45:23;0.30;;;0.30;;
18046;SDS011;9148;51.454;13.862;2023-04-24T14:47:50;0.25;;;0.20;;
18046;SDS011;9148;51.454;13.862;2023-04-24T14:50:16;2.08;;;0.47;;
18046;SDS011;9148;51.454;13.862;2023-04-24T14:52:42;0.40;;;0.40;;
18046;SDS011;9148;51.454;13.862;2023-04-24T14:55:07;1.52;;;0.35;;
18046;SDS011;9148;51.454;13.862;2023-04-24T14:57:33;0.30;;;0.30;;
18046;SDS011;9148;51.454;13.862;2023-04-24T15:00:00;0.20;;;0.20;;